Shikarpur Weather



Shikarpur's Current Weather

Temprature 29.566o clear sky

clear sky

Rain: 0 %

Min Temprature29.566o
Max Temprature29.566o
Humidity26
Wind Speed2.07 m/h
Sun Rise05:54:59
Sun Set18:53:12
Current Time: 21-Apr-2019 05:24:24
Lat/Lon: 27.96, 68.63




Shikarpur's Geo Location



Shikarpur's Weather Forecast

Time Overall Temp Min Temp Max Temp Humidity Wind Speed Rain
21-Apr-2019 (Sun)
08:00:00 clear sky 32.320 32.319 32.320 26 1.97 m/h 0 %
11:00:00 clear sky 38.450 38.450 38.450 17 2.22 m/h 0 %
14:00:00 clear sky 41.550 41.550 41.550 13 1.99 m/h 0 %
17:00:00 clear sky 41.650 41.650 41.650 10 1.37 m/h 0 %
20:00:00 clear sky 37.550 37.550 37.550 14 2.5 m/h 0 %
23:00:00 clear sky 35.740 35.740 35.740 17 4.13 m/h 0 %
22-Apr-2019 (Mon)
02:00:00 clear sky 33.170 33.170 33.170 21 2.61 m/h 0 %
05:00:00 clear sky 31.244 31.244 31.244 24 2.94 m/h 0 %
08:00:00 clear sky 34.296 34.296 34.296 22 2.76 m/h 0 %
11:00:00 clear sky 40.720 40.720 40.720 12 3.02 m/h 0 %
14:00:00 clear sky 43.515 43.515 43.515 8 2.63 m/h 0 %
17:00:00 clear sky 43.531 43.531 43.531 8 2.04 m/h 0 %
20:00:00 clear sky 38.750 38.750 38.750 10 2.17 m/h 0 %
23:00:00 clear sky 36.696 36.696 36.696 13 5.76 m/h 0 %
23-Apr-2019 (Tue)
02:00:00 clear sky 34.177 34.177 34.177 25 6 m/h 0 %
05:00:00 clear sky 32.356 32.356 32.356 32 5.28 m/h 0 %
08:00:00 few clouds 34.757 34.757 34.757 29 4.47 m/h 0 %
11:00:00 broken clouds 41.350 41.350 41.350 14 2.88 m/h 0 %
14:00:00 few clouds 44.450 44.450 44.450 9 4.01 m/h 0 %
17:00:00 few clouds 44.350 44.350 44.350 8 4.14 m/h 0 %
20:00:00 clear sky 39.428 39.428 39.428 9 4.92 m/h 0 %
23:00:00 clear sky 37.350 37.350 37.350 18 7.64 m/h 0 %
24-Apr-2019 (Wed)
02:00:00 clear sky 34.682 34.682 34.682 29 7.32 m/h 0 %
05:00:00 clear sky 32.354 32.354 32.354 35 4.63 m/h 0 %
08:00:00 clear sky 34.550 34.550 34.550 33 3.38 m/h 0 %
11:00:00 clear sky 40.909 40.909 40.909 15 3.64 m/h 0 %
14:00:00 clear sky 43.050 43.050 43.050 12 4.11 m/h 0 %
17:00:00 light rain 40.550 40.550 40.550 16 5.91 m/h 37 %
20:00:00 light rain 36.255 36.255 36.255 22 6.17 m/h 50 %
23:00:00 broken clouds 35.645 35.645 35.645 23 2.66 m/h 0 %
25-Apr-2019 (Thu)
02:00:00 light rain 33.050 33.050 33.050 31 2.29 m/h 156 %
05:00:00 few clouds 31.782 31.782 31.782 33 5.25 m/h 0 %
08:00:00 clear sky 33.420 33.420 33.420 31 6.41 m/h 0 %
11:00:00 clear sky 37.990 37.990 37.990 25 4.3 m/h 0 %
14:00:00 clear sky 41.050 41.050 41.050 16 1.56 m/h 0 %
17:00:00 clear sky 41.111 41.111 41.111 13 2.44 m/h 0 %
20:00:00 clear sky 37.425 37.425 37.425 16 2.71 m/h 0 %
23:00:00 clear sky 35.143 35.143 35.143 20 2.81 m/h 0 %
26-Apr-2019 (Fri)
02:00:00 clear sky 33.332 33.332 33.332 23 2.48 m/h 0 %
05:00:00 clear sky 31.886 31.886 31.886 23 3.5 m/h 0 %

Famous Cities (60)